sensor_id;sensor_type;location;lat;lon;timestamp;temperature;humidity
32147;DHT22;32190;49.112;8.598;2023-06-05T00:03:48;22.50;33.30
32147;DHT22;32190;49.112;8.598;2023-06-05T00:09:40;22.50;33.40
32147;DHT22;32190;49.112;8.598;2023-06-05T00:15:31;22.30;33.40
32147;DHT22;32190;49.112;8.598;2023-06-05T00:21:24;21.90;33.70
32147;DHT22;32190;49.112;8.598;2023-06-05T00:27:15;21.60;34.10
32147;DHT22;32190;49.112;8.598;2023-06-05T00:33:06;21.50;34.40
32147;DHT22;32190;49.112;8.598;2023-06-05T00:38:56;21.40;34.30
32147;DHT22;32190;49.112;8.598;2023-06-05T00:44:47;21.40;34.50
32147;DHT22;32190;49.112;8.598;2023-06-05T00:50:38;21.40;34.40
32147;DHT22;32190;49.112;8.598;2023-06-05T00:56:30;21.50;34.40
32147;DHT22;32190;49.112;8.598;2023-06-05T01:02:23;21.50;34.40
32147;DHT22;32190;49.112;8.598;2023-06-05T01:08:15;21.60;34.50
32147;DHT22;32190;49.112;8.598;2023-06-05T01:14:24;21.60;34.60
32147;DHT22;32190;49.112;8.598;2023-06-05T01:20:18;21.50;34.80
32147;DHT22;32190;49.112;8.598;2023-06-05T01:26:18;21.50;34.70
32147;DHT22;32190;49.112;8.598;2023-06-05T01:32:13;21.40;34.80
32147;DHT22;32190;49.112;8.598;2023-06-05T01:38:06;21.40;35.00
32147;DHT22;32190;49.112;8.598;2023-06-05T01:44:01;21.50;34.80
32147;DHT22;32190;49.112;8.598;2023-06-05T01:49:52;21.30;34.90
32147;DHT22;32190;49.112;8.598;2023-06-05T01:55:42;21.20;35.10
32147;DHT22;32190;49.112;8.598;2023-06-05T02:01:34;21.10;35.10
32147;DHT22;32190;49.112;8.598;2023-06-05T02:07:25;21.10;35.00
32147;DHT22;32190;49.112;8.598;2023-06-05T02:13:15;21.00;35.20
32147;DHT22;32190;49.112;8.598;2023-06-05T02:19:07;20.90;35.20
32147;DHT22;32190;49.112;8.598;2023-06-05T02:24:57;20.80;35.30
32147;DHT22;32190;49.112;8.598;2023-06-05T02:30:48;20.80;35.40
32147;DHT22;32190;49.112;8.598;2023-06-05T02:36:38;20.70;35.50
32147;DHT22;32190;49.112;8.598;2023-06-05T02:42:31;20.60;35.60
32147;DHT22;32190;49.112;8.598;2023-06-05T02:48:21;20.50;35.60
32147;DHT22;32190;49.112;8.598;2023-06-05T02:54:13;20.50;35.70
32147;DHT22;32190;49.112;8.598;2023-06-05T03:00:04;20.40;35.70
32147;DHT22;32190;49.112;8.598;2023-06-05T03:05:59;20.30;35.90
32147;DHT22;32190;49.112;8.598;2023-06-05T03:11:54;20.30;36.00
32147;DHT22;32190;49.112;8.598;2023-06-05T03:17:45;20.20;36.00
32147;DHT22;32190;49.112;8.598;2023-06-05T03:23:36;20.10;36.10
32147;DHT22;32190;49.112;8.598;2023-06-05T03:29:26;20.00;36.20
32147;DHT22;32190;49.112;8.598;2023-06-05T03:35:17;20.00;36.30
32147;DHT22;32190;49.112;8.598;2023-06-05T03:41:08;19.90;36.40
32147;DHT22;32190;49.112;8.598;2023-06-05T03:46:59;19.80;36.60
32147;DHT22;32190;49.112;8.598;2023-06-05T03:52:49;19.60;36.80
32147;DHT22;32190;49.112;8.598;2023-06-05T03:58:44;19.40;37.10
32147;DHT22;32190;49.112;8.598;2023-06-05T04:04:36;19.30;37.20
32147;DHT22;32190;49.112;8.598;2023-06-05T04:10:26;19.20;37.40
32147;DHT22;32190;49.112;8.598;2023-06-05T04:16:17;19.00;37.70
32147;DHT22;32190;49.112;8.598;2023-06-05T04:22:07;18.80;38.00
32147;DHT22;32190;49.112;8.598;2023-06-05T04:27:58;18.50;38.40
32147;DHT22;32190;49.112;8.598;2023-06-05T04:33:49;18.30;38.80
32147;DHT22;32190;49.112;8.598;2023-06-05T04:39:40;18.20;39.20
32147;DHT22;32190;49.112;8.598;2023-06-05T04:45:30;18.20;39.40
32147;DHT22;32190;49.112;8.598;2023-06-05T04:51:21;18.30;39.60
32147;DHT22;32190;49.112;8.598;2023-06-05T04:57:12;18.50;40.30
32147;DHT22;32190;49.112;8.598;2023-06-05T05:03:03;18.80;40.00
32147;DHT22;32190;49.112;8.598;2023-06-05T05:08:54;19.00;40.30
32147;DHT22;32190;49.112;8.598;2023-06-05T05:14:44;19.30;40.30
32147;DHT22;32190;49.112;8.598;2023-06-05T05:20:35;19.70;40.70
32147;DHT22;32190;49.112;8.598;2023-06-05T05:26:25;20.60;40.80
32147;DHT22;32190;49.112;8.598;2023-06-05T05:32:16;22.00;40.50
32147;DHT22;32190;49.112;8.598;2023-06-05T05:38:07;23.60;39.90
32147;DHT22;32190;49.112;8.598;2023-06-05T05:43:58;25.20;39.00
32147;DHT22;32190;49.112;8.598;2023-06-05T05:49:48;26.50;37.50
32147;DHT22;32190;49.112;8.598;2023-06-05T05:55:39;27.80;36.80
32147;DHT22;32190;49.112;8.598;2023-06-05T06:01:29;28.90;36.40
32147;DHT22;32190;49.112;8.598;2023-06-05T06:07:21;29.80;35.20
32147;DHT22;32190;49.112;8.598;2023-06-05T06:13:12;30.50;33.50
32147;DHT22;32190;49.112;8.598;2023-06-05T06:19:03;31.00;33.10
32147;DHT22;32190;49.112;8.598;2023-06-05T06:24:54;31.40;32.50
32147;DHT22;32190;49.112;8.598;2023-06-05T06:30:45;31.70;31.90
32147;DHT22;32190;49.112;8.598;2023-06-05T06:36:37;31.70;31.10
32147;DHT22;32190;49.112;8.598;2023-06-05T06:42:39;31.90;30.70
32147;DHT22;32190;49.112;8.598;2023-06-05T06:48:30;31.90;30.10
32147;DHT22;32190;49.112;8.598;2023-06-05T06:54:20;31.90;30.10
32147;DHT22;32190;49.112;8.598;2023-06-05T07:00:12;31.60;29.90
32147;DHT22;32190;49.112;8.598;2023-06-05T07:06:03;31.20;29.70
32147;DHT22;32190;49.112;8.598;2023-06-05T07:11:59;30.60;29.90
32147;DHT22;32190;49.112;8.598;2023-06-05T07:17:55;30.00;29.50
32147;DHT22;32190;49.112;8.598;2023-06-05T07:23:50;29.30;30.10
32147;DHT22;32190;49.112;8.598;2023-06-05T07:29:45;28.70;30.10
32147;DHT22;32190;49.112;8.598;2023-06-05T07:35:36;28.20;30.40
32147;DHT22;32190;49.112;8.598;2023-06-05T07:41:27;27.90;30.50
32147;DHT22;32190;49.112;8.598;2023-06-05T07:47:18;27.60;30.60
32147;DHT22;32190;49.112;8.598;2023-06-05T07:53:08;27.30;30.90
32147;DHT22;32190;49.112;8.598;2023-06-05T07:59:00;27.10;31.00
32147;DHT22;32190;49.112;8.598;2023-06-05T08:04:52;27.00;31.10
32147;DHT22;32190;49.112;8.598;2023-06-05T08:10:44;26.90;31.20
32147;DHT22;32190;49.112;8.598;2023-06-05T08:16:35;26.80;31.00
32147;DHT22;32190;49.112;8.598;2023-06-05T08:22:26;26.70;31.60
32147;DHT22;32190;49.112;8.598;2023-06-05T08:28:16;26.70;31.70
32147;DHT22;32190;49.112;8.598;2023-06-05T08:34:07;26.60;31.80
32147;DHT22;32190;49.112;8.598;2023-06-05T08:39:57;26.50;31.90
32147;DHT22;32190;49.112;8.598;2023-06-05T08:45:51;26.50;32.10
32147;DHT22;32190;49.112;8.598;2023-06-05T08:51:44;26.40;32.00
32147;DHT22;32190;49.112;8.598;2023-06-05T08:57:38;26.20;32.20
32147;DHT22;32190;49.112;8.598;2023-06-05T09:03:29;26.10;32.50
32147;DHT22;32190;49.112;8.598;2023-06-05T09:09:19;26.10;32.60
32147;DHT22;32190;49.112;8.598;2023-06-05T09:15:27;26.10;33.00
32147;DHT22;32190;49.112;8.598;2023-06-05T09:21:18;26.10;33.60
32147;DHT22;32190;49.112;8.598;2023-06-05T09:27:10;26.10;33.60
32147;DHT22;32190;49.112;8.598;2023-06-05T09:33:10;26.10;33.60
32147;DHT22;32190;49.112;8.598;2023-06-05T09:39:17;26.10;34.20
32147;DHT22;32190;49.112;8.598;2023-06-05T09:45:08;26.10;34.70
32147;DHT22;32190;49.112;8.598;2023-06-05T09:51:17;26.20;35.00
32147;DHT22;32190;49.112;8.598;2023-06-05T09:57:09;26.20;35.20
32147;DHT22;32190;49.112;8.598;2023-06-05T10:03:07;26.30;34.90
32147;DHT22;32190;49.112;8.598;2023-06-05T10:08:58;26.50;35.10
32147;DHT22;32190;49.112;8.598;2023-06-05T10:14:51;26.60;35.80
32147;DHT22;32190;49.112;8.598;2023-06-05T10:20:43;26.70;35.60
32147;DHT22;32190;49.112;8.598;2023-06-05T10:26:53;26.80;35.80
32147;DHT22;32190;49.112;8.598;2023-06-05T10:33:25;26.90;36.30
32147;DHT22;32190;49.112;8.598;2023-06-05T10:39:18;27.00;35.90
32147;DHT22;32190;49.112;8.598;2023-06-05T10:45:09;27.10;35.90
32147;DHT22;32190;49.112;8.598;2023-06-05T10:57:24;27.20;35.30
32147;DHT22;32190;49.112;8.598;2023-06-05T11:03:15;27.40;35.40
32147;DHT22;32190;49.112;8.598;2023-06-05T11:09:10;27.60;34.80
32147;DHT22;32190;49.112;8.598;2023-06-05T11:15:03;27.80;34.80
32147;DHT22;32190;49.112;8.598;2023-06-05T11:20:54;28.00;34.60
32147;DHT22;32190;49.112;8.598;2023-06-05T11:26:45;28.10;34.80
32147;DHT22;32190;49.112;8.598;2023-06-05T11:32:36;28.20;34.10
32147;DHT22;32190;49.112;8.598;2023-06-05T11:38:27;28.20;33.60
32147;DHT22;32190;49.112;8.598;2023-06-05T11:44:31;28.20;33.40
32147;DHT22;32190;49.112;8.598;2023-06-05T11:50:22;28.20;33.70
32147;DHT22;32190;49.112;8.598;2023-06-05T11:56:20;28.30;32.70
32147;DHT22;32190;49.112;8.598;2023-06-05T12:02:12;28.40;32.20
32147;DHT22;32190;49.112;8.598;2023-06-05T12:08:25;28.50;32.00
32147;DHT22;32190;49.112;8.598;2023-06-05T12:14:29;28.60;31.90
32147;DHT22;32190;49.112;8.598;2023-06-05T12:20:20;28.80;31.10
32147;DHT22;32190;49.112;8.598;2023-06-05T12:26:11;28.90;31.90
32147;DHT22;32190;49.112;8.598;2023-06-05T12:32:03;28.90;31.60
32147;DHT22;32190;49.112;8.598;2023-06-05T12:38:09;28.90;31.00
32147;DHT22;32190;49.112;8.598;2023-06-05T12:44:02;29.00;31.50
32147;DHT22;32190;49.112;8.598;2023-06-05T12:49:54;29.10;30.80
32147;DHT22;32190;49.112;8.598;2023-06-05T12:55:47;29.20;31.20
32147;DHT22;32190;49.112;8.598;2023-06-05T13:01:37;29.30;31.20
32147;DHT22;32190;49.112;8.598;2023-06-05T13:07:29;29.40;30.90
32147;DHT22;32190;49.112;8.598;2023-06-05T13:13:20;29.50;30.30
32147;DHT22;32190;49.112;8.598;2023-06-05T13:19:11;29.60;30.00
32147;DHT22;32190;49.112;8.598;2023-06-05T13:25:02;29.70;30.20
32147;DHT22;32190;49.112;8.598;2023-06-05T13:30:53;29.80;30.00
32147;DHT22;32190;49.112;8.598;2023-06-05T13:36:43;29.90;30.00
32147;DHT22;32190;49.112;8.598;2023-06-05T13:42:35;30.00;29.60
32147;DHT22;32190;49.112;8.598;2023-06-05T13:48:25;30.10;29.60
32147;DHT22;32190;49.112;8.598;2023-06-05T13:54:16;30.30;29.70
32147;DHT22;32190;49.112;8.598;2023-06-05T14:00:07;30.30;29.40
32147;DHT22;32190;49.112;8.598;2023-06-05T14:05:58;30.40;29.10
32147;DHT22;32190;49.112;8.598;2023-06-05T14:11:48;30.50;29.10
32147;DHT22;32190;49.112;8.598;2023-06-05T14:17:39;30.60;29.10
32147;DHT22;32190;49.112;8.598;2023-06-05T14:23:32;30.70;28.70
32147;DHT22;32190;49.112;8.598;2023-06-05T14:29:23;30.80;28.60
32147;DHT22;32190;49.112;8.598;2023-06-05T14:35:14;30.90;28.40
32147;DHT22;32190;49.112;8.598;2023-06-05T14:41:06;31.00;28.60
32147;DHT22;32190;49.112;8.598;2023-06-05T14:46:57;31.00;28.30
32147;DHT22;32190;49.112;8.598;2023-06-05T14:52:47;31.10;28.20
32147;DHT22;32190;49.112;8.598;2023-06-05T14:58:38;31.20;27.70
32147;DHT22;32190;49.112;8.598;2023-06-05T15:04:29;31.30;27.20
32147;DHT22;32190;49.112;8.598;2023-06-05T15:10:21;31.30;28.00
32147;DHT22;32190;49.112;8.598;2023-06-05T15:16:11;31.50;27.80
32147;DHT22;32190;49.112;8.598;2023-06-05T15:22:02;31.50;27.30
32147;DHT22;32190;49.112;8.598;2023-06-05T15:27:53;31.50;27.30
32147;DHT22;32190;49.112;8.598;2023-06-05T15:33:46;31.60;27.80
32147;DHT22;32190;49.112;8.598;2023-06-05T15:39:41;31.70;27.20
32147;DHT22;32190;49.112;8.598;2023-06-05T15:45:35;31.70;27.60
32147;DHT22;32190;49.112;8.598;2023-06-05T15:51:26;31.80;27.40
32147;DHT22;32190;49.112;8.598;2023-06-05T15:57:18;31.80;27.30
32147;DHT22;32190;49.112;8.598;2023-06-05T16:03:08;31.80;27.50
32147;DHT22;32190;49.112;8.598;2023-06-05T16:08:59;31.80;27.50
32147;DHT22;32190;49.112;8.598;2023-06-05T16:14:49;31.80;27.40
32147;DHT22;32190;49.112;8.598;2023-06-05T16:20:40;31.80;26.90
32147;DHT22;32190;49.112;8.598;2023-06-05T16:26:31;31.80;27.20
32147;DHT22;32190;49.112;8.598;2023-06-05T16:32:21;31.70;27.00
32147;DHT22;32190;49.112;8.598;2023-06-05T16:38:13;31.70;26.80
32147;DHT22;32190;49.112;8.598;2023-06-05T16:44:03;31.60;27.10
32147;DHT22;32190;49.112;8.598;2023-06-05T16:49:54;31.60;26.60
32147;DHT22;32190;49.112;8.598;2023-06-05T16:55:45;31.50;26.50
32147;DHT22;32190;49.112;8.598;2023-06-05T17:01:35;31.40;26.50
32147;DHT22;32190;49.112;8.598;2023-06-05T17:07:26;31.40;26.50
32147;DHT22;32190;49.112;8.598;2023-06-05T17:13:16;31.30;26.90
32147;DHT22;32190;49.112;8.598;2023-06-05T17:19:07;31.30;26.70
32147;DHT22;32190;49.112;8.598;2023-06-05T17:25:02;31.20;26.60
32147;DHT22;32190;49.112;8.598;2023-06-05T17:30:53;31.10;27.20
32147;DHT22;32190;49.112;8.598;2023-06-05T17:36:43;31.10;26.90
32147;DHT22;32190;49.112;8.598;2023-06-05T17:42:34;31.10;27.00
32147;DHT22;32190;49.112;8.598;2023-06-05T17:48:24;31.00;27.50
32147;DHT22;32190;49.112;8.598;2023-06-05T17:54:15;31.00;27.50
32147;DHT22;32190;49.112;8.598;2023-06-05T18:00:06;31.00;27.30
32147;DHT22;32190;49.112;8.598;2023-06-05T18:05:58;30.90;27.70
32147;DHT22;32190;49.112;8.598;2023-06-05T18:11:50;30.90;27.40
32147;DHT22;32190;49.112;8.598;2023-06-05T18:17:41;30.80;27.60
32147;DHT22;32190;49.112;8.598;2023-06-05T18:23:32;30.70;27.90
32147;DHT22;32190;49.112;8.598;2023-06-05T18:29:22;30.70;28.20
32147;DHT22;32190;49.112;8.598;2023-06-05T18:35:13;30.70;28.40
32147;DHT22;32190;49.112;8.598;2023-06-05T18:41:03;30.70;28.40
32147;DHT22;32190;49.112;8.598;2023-06-05T18:46:54;30.70;28.50
32147;DHT22;32190;49.112;8.598;2023-06-05T18:52:46;30.50;28.50
32147;DHT22;32190;49.112;8.598;2023-06-05T18:58:36;30.40;28.70
32147;DHT22;32190;49.112;8.598;2023-06-05T19:04:27;30.10;28.80
32147;DHT22;32190;49.112;8.598;2023-06-05T19:10:17;29.90;28.80
32147;DHT22;32190;49.112;8.598;2023-06-05T19:16:08;29.60;28.90
32147;DHT22;32190;49.112;8.598;2023-06-05T19:21:58;29.30;29.00
32147;DHT22;32190;49.112;8.598;2023-06-05T19:27:49;29.00;29.20
32147;DHT22;32190;49.112;8.598;2023-06-05T19:33:40;28.70;29.40
32147;DHT22;32190;49.112;8.598;2023-06-05T19:39:31;28.50;29.50
32147;DHT22;32190;49.112;8.598;2023-06-05T19:45:21;28.30;29.70
32147;DHT22;32190;49.112;8.598;2023-06-05T19:51:12;28.10;29.90
32147;DHT22;32190;49.112;8.598;2023-06-05T19:57:03;27.90;29.90
32147;DHT22;32190;49.112;8.598;2023-06-05T20:02:53;27.70;30.10
32147;DHT22;32190;49.112;8.598;2023-06-05T20:08:44;27.60;30.10
32147;DHT22;32190;49.112;8.598;2023-06-05T20:14:35;27.50;30.10
32147;DHT22;32190;49.112;8.598;2023-06-05T20:20:26;27.30;30.30
32147;DHT22;32190;49.112;8.598;2023-06-05T20:26:18;27.20;30.40
32147;DHT22;32190;49.112;8.598;2023-06-05T20:32:10;27.00;30.70
32147;DHT22;32190;49.112;8.598;2023-06-05T20:38:02;26.90;31.00
32147;DHT22;32190;49.112;8.598;2023-06-05T20:43:56;26.80;31.30
32147;DHT22;32190;49.112;8.598;2023-06-05T20:49:47;26.70;31.40
32147;DHT22;32190;49.112;8.598;2023-06-05T20:55:37;26.60;31.60
32147;DHT22;32190;49.112;8.598;2023-06-05T21:01:28;26.60;31.70
32147;DHT22;32190;49.112;8.598;2023-06-05T21:07:22;26.60;31.50
32147;DHT22;32190;49.112;8.598;2023-06-05T21:13:13;26.60;31.50
32147;DHT22;32190;49.112;8.598;2023-06-05T21:19:03;26.50;31.80
32147;DHT22;32190;49.112;8.598;2023-06-05T21:24:54;26.30;31.90
32147;DHT22;32190;49.112;8.598;2023-06-05T21:30:45;26.10;32.20
32147;DHT22;32190;49.112;8.598;2023-06-05T21:36:35;25.90;32.50
32147;DHT22;32190;49.112;8.598;2023-06-05T21:42:26;25.60;32.70
32147;DHT22;32190;49.112;8.598;2023-06-05T21:48:16;25.40;32.90
32147;DHT22;32190;49.112;8.598;2023-06-05T21:54:07;25.30;33.20
32147;DHT22;32190;49.112;8.598;2023-06-05T21:59:57;25.20;33.30
32147;DHT22;32190;49.112;8.598;2023-06-05T22:05:50;25.20;33.40
32147;DHT22;32190;49.112;8.598;2023-06-05T22:11:41;25.30;33.60
32147;DHT22;32190;49.112;8.598;2023-06-05T22:17:34;25.30;33.70
32147;DHT22;32190;49.112;8.598;2023-06-05T22:23:26;25.30;33.90
32147;DHT22;32190;49.112;8.598;2023-06-05T22:29:16;25.30;34.20
32147;DHT22;32190;49.112;8.598;2023-06-05T22:35:07;25.20;34.40
32147;DHT22;32190;49.112;8.598;2023-06-05T22:40:58;25.20;34.70
32147;DHT22;32190;49.112;8.598;2023-06-05T22:46:50;25.20;35.00
32147;DHT22;32190;49.112;8.598;2023-06-05T22:52:43;25.10;35.20
32147;DHT22;32190;49.112;8.598;2023-06-05T22:58:33;25.10;35.50
32147;DHT22;32190;49.112;8.598;2023-06-05T23:04:24;25.00;35.50
32147;DHT22;32190;49.112;8.598;2023-06-05T23:10:16;24.90;35.80
32147;DHT22;32190;49.112;8.598;2023-06-05T23:16:06;24.90;36.00
32147;DHT22;32190;49.112;8.598;2023-06-05T23:21:57;24.90;37.00
32147;DHT22;32190;49.112;8.598;2023-06-05T23:27:47;24.80;36.50
32147;DHT22;32190;49.112;8.598;2023-06-05T23:33:38;24.70;36.70
32147;DHT22;32190;49.112;8.598;2023-06-05T23:39:28;24.60;37.20
32147;DHT22;32190;49.112;8.598;2023-06-05T23:45:19;24.50;37.40
32147;DHT22;32190;49.112;8.598;2023-06-05T23:51:10;24.40;37.60
32147;DHT22;32190;49.112;8.598;2023-06-05T23:57:00;24.40;37.80
